createdAt,value
2023-03-16T00:00:50.158Z,54.37
2023-03-16T00:03:22.624Z,54.47
2023-03-16T00:05:54.777Z,54.16
2023-03-16T00:08:27.239Z,52.86
2023-03-16T00:10:59.002Z,53.62
2023-03-16T00:13:31.050Z,54.28
2023-03-16T00:16:03.985Z,53.82
2023-03-16T00:18:35.611Z,54.40
2023-03-16T00:21:07.227Z,54.64
2023-03-16T00:23:38.851Z,55.77
2023-03-16T00:26:10.508Z,55.42
2023-03-16T00:28:42.059Z,54.68
2023-03-16T00:31:14.984Z,56.03
2023-03-16T00:33:46.871Z,57.16
2023-03-16T00:36:18.479Z,57.31
2023-03-16T00:38:50.043Z,57.70
2023-03-16T00:41:21.937Z,57.85
2023-03-16T00:43:53.628Z,57.76
2023-03-16T00:46:25.211Z,58.06
2023-03-16T00:48:56.837Z,59.35
2023-03-16T00:51:28.523Z,59.04
2023-03-16T00:54:00.108Z,58.96
2023-03-16T00:56:31.668Z,58.25
2023-03-16T00:59:03.309Z,58.79
2023-03-16T01:01:35.002Z,58.41
2023-03-16T01:04:06.660Z,58.18
2023-03-16T01:06:39.913Z,60.02
2023-03-16T01:09:11.935Z,59.95
2023-03-16T01:11:43.503Z,58.60
2023-03-16T01:14:15.083Z,57.79
2023-03-16T01:16:47.062Z,56.46
2023-03-16T01:19:18.699Z,56.30
2023-03-16T01:21:50.287Z,55.12
2023-03-16T01:24:22.134Z,55.44
2023-03-16T01:26:54.000Z,56.18
2023-03-16T01:29:25.893Z,56.19
2023-03-16T01:32:00.046Z,57.31
2023-03-16T01:34:32.479Z,56.50
2023-03-16T01:37:04.634Z,56.86
2023-03-16T01:39:56.447Z,57.79
2023-03-16T01:42:28.190Z,57.23
2023-03-16T01:45:01.159Z,58.13
2023-03-16T01:47:37.576Z,57.90
2023-03-16T01:50:10.894Z,57.59
2023-03-16T01:52:45.221Z,57.58
2023-03-16T01:55:18.592Z,57.87
2023-03-16T01:57:50.286Z,57.22
2023-03-16T02:00:22.186Z,57.95
2023-03-16T02:03:16.579Z,57.54
2023-03-16T02:06:12.642Z,58.29
2023-03-16T02:08:50.565Z,57.44
2023-03-16T02:11:23.423Z,58.79
2023-03-16T02:14:12.001Z,60.25
2023-03-16T02:16:43.711Z,60.94
2023-03-16T02:19:29.353Z,61.21
2023-03-16T02:22:05.788Z,61.19
2023-03-16T02:24:38.467Z,62.28
2023-03-16T02:27:25.893Z,62.02
2023-03-16T02:30:08.120Z,60.56
2023-03-16T02:32:50.560Z,60.46
2023-03-16T02:35:22.815Z,61.22
2023-03-16T02:37:55.330Z,60.16
2023-03-16T02:40:32.355Z,60.87
2023-03-16T02:43:18.537Z,61.21
2023-03-16T02:46:02.540Z,60.83
2023-03-16T02:49:09.969Z,59.50
2023-03-16T02:51:45.332Z,59.99
2023-03-16T02:54:17.577Z,59.33
2023-03-16T02:56:49.193Z,59.70
2023-03-16T02:59:21.481Z,58.98
2023-03-16T03:01:53.452Z,58.99
2023-03-16T03:04:25.120Z,59.31
2023-03-16T03:06:56.680Z,58.58
2023-03-16T03:09:28.322Z,59.48
2023-03-16T03:12:00.317Z,59.75
2023-03-16T03:14:31.913Z,60.01
2023-03-16T03:17:07.895Z,60.52
2023-03-16T03:19:39.545Z,60.38
2023-03-16T03:22:11.296Z,58.48
2023-03-16T03:24:43.066Z,59.41
2023-03-16T03:27:14.808Z,61.01
2023-03-16T03:29:47.463Z,61.74
2023-03-16T03:32:19.134Z,60.53
2023-03-16T03:34:51.271Z,60.72
2023-03-16T03:37:22.875Z,60.60
2023-03-16T03:39:54.634Z,60.50
2023-03-16T03:42:26.448Z,59.50
2023-03-16T03:44:58.206Z,60.87
2023-03-16T03:47:30.907Z,61.02
2023-03-16T03:50:03.481Z,61.78
2023-03-16T03:52:38.235Z,60.49
2023-03-16T03:55:10.770Z,60.29
2023-03-16T03:57:42.387Z,60.07
2023-03-16T04:00:14.420Z,60.15
2023-03-16T04:02:48.090Z,59.02
2023-03-16T04:05:29.703Z,59.08
2023-03-16T04:08:01.365Z,58.06
2023-03-16T04:10:33.177Z,59.37
2023-03-16T04:13:05.359Z,59.29
2023-03-16T04:15:38.583Z,60.19
2023-03-16T04:18:15.796Z,58.23
2023-03-16T04:20:48.394Z,59.68
2023-03-16T04:23:23.440Z,58.50
2023-03-16T04:25:55.655Z,58.67
2023-03-16T04:28:27.859Z,59.16
2023-03-16T04:31:05.213Z,58.04
2023-03-16T04:33:41.002Z,58.59
2023-03-16T04:36:12.698Z,57.78
2023-03-16T04:38:45.100Z,58.37
2023-03-16T04:41:18.392Z,58.20
2023-03-16T04:43:59.007Z,58.83
2023-03-16T04:46:30.886Z,58.60
2023-03-16T04:49:06.152Z,59.07
2023-03-16T04:51:37.995Z,59.61
2023-03-16T04:54:13.230Z,59.48
2023-03-16T04:56:47.643Z,59.70
2023-03-16T04:59:32.401Z,59.55
2023-03-16T05:02:18.682Z,58.90
2023-03-16T05:04:50.395Z,60.41
2023-03-16T05:07:22.660Z,59.98
2023-03-16T05:09:58.101Z,60.08
2023-03-16T05:12:29.898Z,60.72
2023-03-16T05:15:06.872Z,60.74
2023-03-16T05:17:44.528Z,59.95
2023-03-16T05:20:18.271Z,59.92
2023-03-16T05:22:55.609Z,59.95
2023-03-16T05:25:39.002Z,60.17
2023-03-16T05:28:12.014Z,61.52
2023-03-16T05:30:51.951Z,61.95
2023-03-16T05:33:29.341Z,63.01
2023-03-16T05:36:07.888Z,62.98
2023-03-16T05:38:41.025Z,63.33
2023-03-16T05:41:15.604Z,63.25
2023-03-16T05:44:04.841Z,62.23
2023-03-16T05:46:51.191Z,62.38
2023-03-16T05:49:22.839Z,62.38
2023-03-16T05:51:54.906Z,63.16
2023-03-16T05:54:27.182Z,61.63
2023-03-16T05:56:58.965Z,61.39
2023-03-16T05:59:31.560Z,61.29
2023-03-16T06:02:03.571Z,61.84
2023-03-16T06:04:36.209Z,61.09
2023-03-16T06:07:08.148Z,55.79
2023-03-16T06:09:39.757Z,53.30
2023-03-16T06:12:16.797Z,50.57
2023-03-16T06:14:49.044Z,53.53
2023-03-16T06:17:20.760Z,55.25
2023-03-16T06:19:52.648Z,54.57
2023-03-16T06:22:24.435Z,54.30
2023-03-16T06:24:56.154Z,54.94
2023-03-16T06:27:27.947Z,55.67
2023-03-16T06:30:14.897Z,56.51
2023-03-16T06:32:46.835Z,55.00
2023-03-16T06:35:19.572Z,55.42
2023-03-16T06:38:04.462Z,56.21
2023-03-16T06:40:54.726Z,56.38
2023-03-16T06:43:27.912Z,51.24
2023-03-16T06:45:59.977Z,47.62
2023-03-16T06:48:31.852Z,45.47
2023-03-16T06:51:03.797Z,41.43
2023-03-16T06:53:35.980Z,38.41
2023-03-16T06:56:07.863Z,40.01
2023-03-16T06:58:44.325Z,38.91
2023-03-16T07:01:16.072Z,40.68
2023-03-16T07:03:47.825Z,44.12
2023-03-16T07:06:25.057Z,45.53
2023-03-16T07:08:56.668Z,47.29
2023-03-16T07:11:29.077Z,48.77
2023-03-16T07:14:03.190Z,48.52
2023-03-16T07:16:36.924Z,40.87
2023-03-16T07:19:11.285Z,39.79
2023-03-16T07:21:42.944Z,37.45
2023-03-16T07:24:19.691Z,35.67
2023-03-16T07:26:51.319Z,40.21
2023-03-16T07:29:33.086Z,40.52
2023-03-16T07:32:07.655Z,36.01
2023-03-16T07:34:42.914Z,33.34
2023-03-16T07:37:17.136Z,34.42
2023-03-16T07:39:50.318Z,33.91
2023-03-16T07:42:23.675Z,31.95
2023-03-16T07:45:09.827Z,29.55
2023-03-16T07:47:41.648Z,27.42
2023-03-16T07:50:39.144Z,28.41
2023-03-16T07:53:12.311Z,28.73
2023-03-16T07:55:46.608Z,27.66
2023-03-16T07:58:18.519Z,29.13
2023-03-16T08:00:51.849Z,29.83
2023-03-16T08:03:25.613Z,29.01
2023-03-16T08:05:59.404Z,27.69
2023-03-16T08:08:32.321Z,26.64
2023-03-16T08:11:04.087Z,25.93
2023-03-16T08:13:46.921Z,27.40
2023-03-16T08:16:21.947Z,27.35
2023-03-16T08:18:57.980Z,30.02
2023-03-16T08:21:29.887Z,29.11
2023-03-16T08:24:01.548Z,30.13
2023-03-16T08:26:33.695Z,31.09
2023-03-16T08:29:05.500Z,33.39
2023-03-16T08:31:41.096Z,37.09
2023-03-16T08:34:19.349Z,36.38
2023-03-16T08:36:50.992Z,35.45
2023-03-16T08:39:22.707Z,35.02
2023-03-16T08:41:54.914Z,33.90
2023-03-16T08:44:33.917Z,33.45
2023-03-16T08:47:05.766Z,33.42
2023-03-16T08:49:39.540Z,33.97
2023-03-16T08:52:16.507Z,34.30
2023-03-16T08:55:01.903Z,33.90
2023-03-16T08:57:34.774Z,32.59
2023-03-16T09:00:08.840Z,34.29
2023-03-16T09:02:42.514Z,33.57
2023-03-16T09:05:16.263Z,33.50
2023-03-16T09:07:49.012Z,34.21
2023-03-16T09:10:21.653Z,34.15
2023-03-16T09:12:53.884Z,35.02
2023-03-16T09:15:25.439Z,35.15
2023-03-16T09:17:57.048Z,34.39
2023-03-16T09:20:30.173Z,33.28
2023-03-16T09:23:01.956Z,31.04
2023-03-16T09:25:33.577Z,34.67
2023-03-16T09:28:05.887Z,32.79
2023-03-16T09:30:37.537Z,31.36
2023-03-16T09:33:09.288Z,31.49
2023-03-16T09:35:40.961Z,30.13
2023-03-16T09:38:12.563Z,29.91
2023-03-16T09:40:47.722Z,29.63
2023-03-16T09:43:45.358Z,29.28
2023-03-16T09:46:36.295Z,29.42
2023-03-16T09:49:15.352Z,30.41
2023-03-16T09:52:12.428Z,30.09
2023-03-16T09:55:11.881Z,29.30
2023-03-16T09:57:45.831Z,28.43
2023-03-16T10:00:28.405Z,27.98
2023-03-16T10:03:28.244Z,27.90
2023-03-16T10:06:03.152Z,27.54
2023-03-16T10:08:51.175Z,27.37
2023-03-16T10:11:38.068Z,24.50
2023-03-16T10:14:09.633Z,26.19
2023-03-16T10:16:49.768Z,26.59
2023-03-16T10:19:49.567Z,29.15
2023-03-16T10:22:37.239Z,28.18
2023-03-16T10:25:27.277Z,27.14
2023-03-16T10:27:59.119Z,26.11
2023-03-16T10:30:36.651Z,26.40
2023-03-16T10:33:29.683Z,26.82
2023-03-16T10:36:25.611Z,28.30
2023-03-16T10:39:01.770Z,26.92
2023-03-16T10:41:36.506Z,27.60
2023-03-16T10:44:11.220Z,27.66
2023-03-16T10:46:58.430Z,30.97
2023-03-16T10:49:38.646Z,33.52
2023-03-16T10:52:34.857Z,34.90
2023-03-16T10:55:27.250Z,34.81
2023-03-16T10:57:59.120Z,36.56
2023-03-16T11:00:37.426Z,34.67
2023-03-16T11:03:30.359Z,34.85
2023-03-16T11:06:05.643Z,35.71
2023-03-16T11:08:39.174Z,36.35
2023-03-16T11:11:17.112Z,37.58
2023-03-16T11:13:49.243Z,37.05
2023-03-16T11:16:27.940Z,36.77
2023-03-16T11:19:25.713Z,37.16
2023-03-16T11:22:05.635Z,37.54
2023-03-16T11:24:46.388Z,39.28
2023-03-16T11:27:33.622Z,37.45
2023-03-16T11:30:26.757Z,39.13
2023-03-16T11:32:58.549Z,37.68
2023-03-16T11:35:38.433Z,36.44
2023-03-16T11:38:37.521Z,38.51
2023-03-16T11:41:13.342Z,37.64
2023-03-16T11:44:00.293Z,34.52
2023-03-16T11:46:42.279Z,35.56
2023-03-16T11:49:51.554Z,32.94
2023-03-16T11:52:39.932Z,33.06
2023-03-16T11:55:34.012Z,32.08
2023-03-16T11:58:30.978Z,34.82
2023-03-16T12:01:17.542Z,33.02
2023-03-16T12:04:12.274Z,34.51
2023-03-16T12:06:55.299Z,35.53
2023-03-16T12:10:05.544Z,35.38
2023-03-16T12:12:55.617Z,35.07
2023-03-16T12:16:46.283Z,35.48
2023-03-16T12:19:45.624Z,35.39
2023-03-16T12:22:20.829Z,34.33
2023-03-16T12:24:52.835Z,35.00
2023-03-16T12:27:31.672Z,35.68
2023-03-16T12:30:40.412Z,36.24
2023-03-16T12:33:33.430Z,35.42
2023-03-16T12:36:23.225Z,34.39
2023-03-16T12:39:07.122Z,36.02
2023-03-16T12:41:56.161Z,33.44
2023-03-16T12:44:56.790Z,33.81
2023-03-16T12:47:32.430Z,33.62
2023-03-16T12:50:11.344Z,33.62
2023-03-16T12:52:46.821Z,34.29
2023-03-16T12:55:20.675Z,33.39
2023-03-16T12:58:04.939Z,33.50
2023-03-16T13:00:40.335Z,33.88
2023-03-16T13:03:19.895Z,34.56
2023-03-16T13:05:56.034Z,31.25
2023-03-16T13:08:28.489Z,30.81
2023-03-16T13:11:11.890Z,30.73
2023-03-16T13:14:03.726Z,29.42
2023-03-16T13:16:37.358Z,27.89
2023-03-16T13:19:27.556Z,30.78
2023-03-16T13:22:24.153Z,30.17
2023-03-16T13:25:13.758Z,31.79
2023-03-16T13:27:53.503Z,31.78
2023-03-16T13:30:34.430Z,31.66
2023-03-16T13:33:19.659Z,32.18
2023-03-16T13:35:53.808Z,31.98
2023-03-16T13:38:27.882Z,32.01
2023-03-16T13:41:09.158Z,33.61
2023-03-16T13:43:44.174Z,32.52
2023-03-16T13:46:16.828Z,34.38
2023-03-16T13:48:49.240Z,35.52
2023-03-16T13:51:21.882Z,36.41
2023-03-16T13:53:53.681Z,36.53
2023-03-16T13:56:27.378Z,38.29
2023-03-16T13:58:59.496Z,36.19
2023-03-16T14:01:32.020Z,39.41
2023-03-16T14:04:11.576Z,38.70
2023-03-16T14:06:59.304Z,39.36
2023-03-16T14:09:35.162Z,40.23
2023-03-16T14:12:07.027Z,41.57
2023-03-16T14:14:40.259Z,44.20
2023-03-16T14:17:16.118Z,40.57
2023-03-16T14:20:00.728Z,40.46
2023-03-16T14:22:36.880Z,38.40
2023-03-16T14:25:20.478Z,39.18
2023-03-16T14:27:59.599Z,39.58
2023-03-16T14:30:31.548Z,41.31
2023-03-16T14:33:27.955Z,40.38
2023-03-16T14:36:11.373Z,37.51
2023-03-16T14:38:48.464Z,38.09
2023-03-16T14:41:30.741Z,37.80
2023-03-16T14:44:02.578Z,38.27
2023-03-16T14:46:39.216Z,35.91
2023-03-16T14:49:22.883Z,35.03
2023-03-16T14:52:02.728Z,34.46
2023-03-16T14:54:34.662Z,31.53
2023-03-16T14:57:06.810Z,31.70
2023-03-16T14:59:38.673Z,31.81
2023-03-16T15:02:23.044Z,31.23
2023-03-16T15:04:57.069Z,33.24
2023-03-16T15:07:32.723Z,32.91
2023-03-16T15:10:22.350Z,33.47
2023-03-16T15:12:54.024Z,32.73
2023-03-16T15:15:25.731Z,30.84
2023-03-16T15:17:57.360Z,29.74
2023-03-16T15:20:34.577Z,27.87
2023-03-16T15:23:06.268Z,27.05
2023-03-16T15:25:41.250Z,29.03
2023-03-16T15:28:24.720Z,28.57
2023-03-16T15:30:58.687Z,30.42
2023-03-16T15:33:31.072Z,27.88
2023-03-16T15:36:14.580Z,24.17
2023-03-16T15:38:49.214Z,25.90
2023-03-16T15:41:22.603Z,26.63
2023-03-16T15:43:54.241Z,27.97
2023-03-16T15:46:26.356Z,27.85
2023-03-16T15:48:57.996Z,29.59
2023-03-16T15:51:31.154Z,30.21
2023-03-16T15:54:06.635Z,29.22
2023-03-16T15:56:53.297Z,29.57
2023-03-16T15:59:31.413Z,29.31
2023-03-16T16:02:03.396Z,30.12
2023-03-16T16:04:35.034Z,30.02
2023-03-16T16:07:11.253Z,32.41
2023-03-16T16:09:42.927Z,32.32
2023-03-16T16:12:16.419Z,31.75
2023-03-16T16:14:48.084Z,31.99
2023-03-16T16:17:21.156Z,31.89
2023-03-16T16:19:54.690Z,32.13
2023-03-16T16:22:26.332Z,33.45
2023-03-16T16:24:57.899Z,35.39
2023-03-16T16:27:29.574Z,35.08
2023-03-16T16:30:01.194Z,35.18
2023-03-16T16:32:32.891Z,36.27
2023-03-16T16:35:13.412Z,38.25
2023-03-16T16:37:45.467Z,36.76
2023-03-16T16:40:23.452Z,39.43
2023-03-16T16:42:55.227Z,40.29
2023-03-16T16:45:27.653Z,39.45
2023-03-16T16:47:59.492Z,38.47
2023-03-16T16:50:31.065Z,38.85
2023-03-16T16:53:16.192Z,40.03
2023-03-16T16:55:47.922Z,39.87
2023-03-16T16:58:24.617Z,39.48
2023-03-16T17:00:58.320Z,39.72
2023-03-16T17:03:30.430Z,41.49
2023-03-16T17:06:02.355Z,41.34
2023-03-16T17:08:34.098Z,41.28
2023-03-16T17:11:05.890Z,41.00
2023-03-16T17:13:40.465Z,40.65
2023-03-16T17:16:16.777Z,39.09
2023-03-16T17:18:49.528Z,41.11
2023-03-16T17:21:24.186Z,41.14
2023-03-16T17:23:56.216Z,42.18
2023-03-16T17:26:39.816Z,41.96
2023-03-16T17:29:22.078Z,43.50
2023-03-16T17:31:54.072Z,43.85
2023-03-16T17:34:29.062Z,45.87
2023-03-16T17:37:00.697Z,46.15
2023-03-16T17:39:33.679Z,46.46
2023-03-16T17:42:11.741Z,46.40
2023-03-16T17:44:47.199Z,46.28
2023-03-16T17:47:23.495Z,45.94
2023-03-16T17:49:55.369Z,44.47
2023-03-16T17:52:29.307Z,46.49
2023-03-16T17:55:00.970Z,47.52
2023-03-16T17:57:33.918Z,47.66
2023-03-16T18:00:20.523Z,47.26
2023-03-16T18:03:12.342Z,48.16
2023-03-16T18:05:45.205Z,48.64
2023-03-16T18:08:22.386Z,48.47
2023-03-16T18:11:00.910Z,49.68
2023-03-16T18:13:36.472Z,50.31
2023-03-16T18:16:12.886Z,51.50
2023-03-16T18:18:44.634Z,50.31
2023-03-16T18:21:22.183Z,49.68
2023-03-16T18:23:54.163Z,50.15
2023-03-16T18:26:25.884Z,50.65
2023-03-16T18:28:57.503Z,51.03
2023-03-16T18:31:29.645Z,50.94
2023-03-16T18:34:05.738Z,50.24
2023-03-16T18:36:38.073Z,49.62
2023-03-16T18:39:19.323Z,50.11
2023-03-16T18:41:50.985Z,51.04
2023-03-16T18:44:25.172Z,50.17
2023-03-16T18:47:02.631Z,48.80
2023-03-16T18:49:36.638Z,47.84
2023-03-16T18:52:19.520Z,48.98
2023-03-16T18:54:51.872Z,49.52
2023-03-16T18:57:27.236Z,50.53
2023-03-16T18:59:58.845Z,50.64
2023-03-16T19:02:38.928Z,51.94
2023-03-16T19:05:20.710Z,50.80
2023-03-16T19:07:52.989Z,50.78
2023-03-16T19:10:34.671Z,51.73
2023-03-16T19:13:16.260Z,52.10
2023-03-16T19:15:49.691Z,50.79
2023-03-16T19:18:21.340Z,51.74
2023-03-16T19:20:55.112Z,51.07
2023-03-16T19:23:35.135Z,50.40
2023-03-16T19:26:07.835Z,51.15
2023-03-16T19:28:43.757Z,52.40
2023-03-16T19:31:26.641Z,52.73
2023-03-16T19:33:58.565Z,52.61
2023-03-16T19:36:32.324Z,52.36
2023-03-16T19:39:04.273Z,52.38
2023-03-16T19:41:38.061Z,51.84
2023-03-16T19:44:26.762Z,52.03
2023-03-16T19:46:58.625Z,52.71
2023-03-16T19:49:30.709Z,54.51
2023-03-16T19:52:02.544Z,54.57
2023-03-16T19:54:34.253Z,53.24
2023-03-16T19:57:16.837Z,54.38
2023-03-16T19:59:55.148Z,54.42
2023-03-16T20:02:35.489Z,54.29
2023-03-16T20:05:07.839Z,54.36
2023-03-16T20:07:39.678Z,54.59
2023-03-16T20:10:22.047Z,54.32
2023-03-16T20:13:00.194Z,54.73
2023-03-16T20:15:33.466Z,54.56
2023-03-16T20:18:12.411Z,55.02
2023-03-16T20:20:44.549Z,55.50
2023-03-16T20:23:29.007Z,55.17
2023-03-16T20:26:02.652Z,56.78
2023-03-16T20:28:37.059Z,57.14
2023-03-16T20:31:18.720Z,56.87
2023-03-16T20:33:52.482Z,56.93
2023-03-16T20:36:26.162Z,56.13
2023-03-16T20:38:58.133Z,55.45
2023-03-16T20:41:31.518Z,56.20
2023-03-16T20:44:03.550Z,56.07
2023-03-16T20:46:35.590Z,55.73
2023-03-16T20:49:36.480Z,55.98
2023-03-16T20:52:28.253Z,56.76
2023-03-16T20:55:01.213Z,57.23
2023-03-16T20:57:33.090Z,57.35
2023-03-16T21:00:17.641Z,58.16
2023-03-16T21:02:49.350Z,58.49
2023-03-16T21:05:22.041Z,57.49
2023-03-16T21:07:54.167Z,57.46
2023-03-16T21:10:25.854Z,57.98
2023-03-16T21:12:57.811Z,58.47
2023-03-16T21:15:31.825Z,59.09
2023-03-16T21:18:06.691Z,59.67
2023-03-16T21:20:38.383Z,58.02
2023-03-16T21:23:15.070Z,56.63
2023-03-16T21:25:56.555Z,57.25
2023-03-16T21:28:32.990Z,58.25
2023-03-16T21:31:05.222Z,58.37
2023-03-16T21:33:40.349Z,58.02
2023-03-16T21:36:21.940Z,57.90
2023-03-16T21:38:55.021Z,58.66
2023-03-16T21:41:26.600Z,57.93
2023-03-16T21:43:58.187Z,58.29
2023-03-16T21:46:30.143Z,57.93
2023-03-16T21:49:03.660Z,57.19
2023-03-16T21:51:36.327Z,58.29
2023-03-16T21:54:13.269Z,56.87
2023-03-16T21:56:46.126Z,56.66
2023-03-16T21:59:17.712Z,55.70
2023-03-16T22:02:01.161Z,54.81
2023-03-16T22:04:33.817Z,55.16
2023-03-16T22:07:11.086Z,55.22
2023-03-16T22:09:43.574Z,54.80
2023-03-16T22:12:15.433Z,56.11
2023-03-16T22:14:46.980Z,55.69
2023-03-16T22:17:22.519Z,56.29
2023-03-16T22:19:54.163Z,57.06
2023-03-16T22:22:33.451Z,57.00
2023-03-16T22:25:14.864Z,57.97
2023-03-16T22:27:46.525Z,57.48
2023-03-16T22:30:25.698Z,57.49
2023-03-16T22:33:00.584Z,56.31
2023-03-16T22:35:38.709Z,56.45
2023-03-16T22:38:14.334Z,56.96
2023-03-16T22:40:45.912Z,56.64
2023-03-16T22:43:22.558Z,56.07
2023-03-16T22:45:54.132Z,57.37
2023-03-16T22:48:28.751Z,56.74
2023-03-16T22:51:04.346Z,56.19
2023-03-16T22:53:41.226Z,55.38
2023-03-16T22:56:12.965Z,56.29
2023-03-16T22:59:01.983Z,56.03
2023-03-16T23:01:39.942Z,56.60
2023-03-16T23:04:17.362Z,57.62
2023-03-16T23:06:52.371Z,56.16
2023-03-16T23:09:25.267Z,56.17
2023-03-16T23:11:57.332Z,56.53
2023-03-16T23:14:34.666Z,55.26
2023-03-16T23:17:24.867Z,55.28
2023-03-16T23:19:56.512Z,55.39
2023-03-16T23:22:28.252Z,55.94
2023-03-16T23:25:00.205Z,56.68
2023-03-16T23:27:31.973Z,57.07
2023-03-16T23:30:18.747Z,56.49
2023-03-16T23:32:53.248Z,56.63
2023-03-16T23:35:28.259Z,56.21
2023-03-16T23:38:00.426Z,55.94
2023-03-16T23:40:36.868Z,55.97
2023-03-16T23:43:09.008Z,56.33
2023-03-16T23:45:44.989Z,57.73
2023-03-16T23:48:20.572Z,55.82
2023-03-16T23:50:55.553Z,56.60
2023-03-16T23:53:27.232Z,58.04
2023-03-16T23:55:59.125Z,57.23
2023-03-16T23:58:31.241Z,55.05
